Time;durP1;ratioP1;P1;durP2;ratioP2;P2;SDS_P1;SDS_P2;PMS_P1;PMS_P2;Temp;Humidity;BMP_temperature;BMP_pressure;BME280_temperature;BME280_humidity;BME280_pressure;Samples;Min_cycle;Max_cycle;Signal;HPM_P1;HPM_P2
2024/02/18 00:00:42;;;;;;;16.70;7.88;;;11.40;99.90;;;;;;5009742;28;20048;-80
2024/02/18 00:03:07;;;;;;;27.55;9.68;;;11.30;99.90;;;;;;5013073;28;20052;-82
2024/02/18 00:05:34;;;;;;;16.98;7.75;;;11.20;99.90;;;;;;5013551;28;20037;-83
2024/02/18 00:08:00;;;;;;;18.88;8.15;;;11.10;99.90;;;;;;5014668;28;20091;-82
2024/02/18 00:10:26;;;;;;;14.38;8.25;;;11.00;99.90;;;;;;5014983;28;20051;-82
2024/02/18 00:12:52;;;;;;;19.33;9.35;;;10.90;99.90;;;;;;5015029;28;20438;-81
2024/02/18 00:15:17;;;;;;;16.90;8.50;;;10.90;99.90;;;;;;5013479;28;20060;-82
2024/02/18 00:17:43;;;;;;;23.38;10.07;;;10.70;99.90;;;;;;5016029;28;20029;-81
2024/02/18 00:20:15;;;;;;;15.85;8.45;;;10.70;99.90;;;;;;5015711;28;20083;-81
2024/02/18 00:22:41;;;;;;;13.65;8.00;;;10.70;99.90;;;;;;5015062;28;20438;-81
2024/02/18 00:25:07;;;;;;;16.85;8.63;;;10.60;99.90;;;;;;5016218;28;20039;-81
2024/02/18 00:27:33;;;;;;;15.88;8.40;;;10.50;99.90;;;;;;5015504;28;20037;-82
2024/02/18 00:29:59;;;;;;;18.38;7.07;;;10.60;99.90;;;;;;5015569;28;20030;-82
2024/02/18 00:32:25;;;;;;;11.98;6.45;;;10.80;99.90;;;;;;5015394;28;20041;-81
2024/02/18 00:34:50;;;;;;;17.23;6.75;;;11.00;99.90;;;;;;5015080;28;20044;-81
2024/02/18 00:37:17;;;;;;;14.02;6.55;;;11.10;99.90;;;;;;5016627;28;20048;-81
2024/02/18 00:39:43;;;;;;;14.40;7.28;;;11.00;99.90;;;;;;5015082;28;20037;-82
2024/02/18 00:42:10;;;;;;;16.35;7.45;;;10.80;99.90;;;;;;5014819;28;20549;-82
2024/02/18 00:44:36;;;;;;;15.15;5.90;;;10.90;99.90;;;;;;5015014;28;20041;-82
2024/02/18 00:47:03;;;;;;;14.60;6.60;;;10.90;99.90;;;;;;5015358;28;20061;-82
2024/02/18 00:49:28;;;;;;;12.00;5.78;;;10.80;99.90;;;;;;5015113;28;20064;-82
2024/02/18 00:51:54;;;;;;;15.05;5.95;;;10.80;99.90;;;;;;5015348;28;20129;-81
2024/02/18 00:54:20;;;;;;;12.77;6.40;;;10.70;99.90;;;;;;5016030;28;20079;-81
2024/02/18 00:56:47;;;;;;;13.80;5.95;;;10.70;99.90;;;;;;5016085;28;20040;-81
2024/02/18 00:59:13;;;;;;;15.00;7.10;;;10.70;99.90;;;;;;5015685;28;21745;-82
2024/02/18 01:01:39;;;;;;;12.65;6.30;;;10.60;99.90;;;;;;5016913;28;20037;-82
2024/02/18 01:04:05;;;;;;;15.35;6.47;;;10.70;99.90;;;;;;5016275;28;20103;-82
2024/02/18 01:06:30;;;;;;;14.98;6.07;;;10.70;99.90;;;;;;5015466;28;20556;-82
2024/02/18 01:08:56;;;;;;;16.27;7.20;;;10.70;99.90;;;;;;5018434;28;20054;-82
2024/02/18 01:11:22;;;;;;;11.50;5.70;;;10.70;99.90;;;;;;5018817;28;20060;-81
2024/02/18 01:13:48;;;;;;;14.10;6.28;;;10.70;99.90;;;;;;5018808;28;20041;-81
2024/02/18 01:16:13;;;;;;;11.73;5.78;;;10.70;99.90;;;;;;5020185;28;20038;-81
2024/02/18 01:18:40;;;;;;;12.32;6.03;;;10.60;99.90;;;;;;5018260;28;20087;-81
2024/02/18 01:21:06;;;;;;;16.73;7.95;;;10.50;99.90;;;;;;5018121;28;21425;-82
2024/02/18 01:23:32;;;;;;;15.43;8.45;;;10.50;99.90;;;;;;5019373;28;20037;-82
2024/02/18 01:25:58;;;;;;;14.52;7.70;;;10.40;99.90;;;;;;5018909;28;20037;-82
2024/02/18 01:28:25;;;;;;;13.82;6.00;;;10.50;99.90;;;;;;5019681;28;20029;-81
2024/02/18 01:30:51;;;;;;;13.27;6.05;;;10.50;99.90;;;;;;5018447;28;20197;-81
2024/02/18 01:33:17;;;;;;;10.68;5.82;;;10.50;99.90;;;;;;5019335;28;20140;-81
2024/02/18 01:35:42;;;;;;;13.68;5.20;;;10.30;99.90;;;;;;5017922;28;20539;-82
2024/02/18 01:38:09;;;;;;;11.40;5.50;;;10.30;99.90;;;;;;5017372;28;20029;-81
2024/02/18 01:40:35;;;;;;;11.23;4.70;;;10.50;99.90;;;;;;5019376;28;20080;-82
2024/02/18 01:43:02;;;;;;;9.43;4.63;;;10.70;99.90;;;;;;5018722;28;20106;-82
2024/02/18 01:45:28;;;;;;;14.18;5.18;;;10.70;99.90;;;;;;5018791;28;20041;-82
2024/02/18 01:47:53;;;;;;;12.18;5.32;;;10.60;99.90;;;;;;5008974;28;20037;-81
2024/02/18 01:50:19;;;;;;;11.88;5.53;;;10.40;99.90;;;;;;5018791;28;20087;-82
2024/02/18 01:52:46;;;;;;;9.13;4.68;;;10.50;99.90;;;;;;5018529;28;20033;-82
2024/02/18 01:55:14;;;;;;;9.07;5.10;;;10.40;99.90;;;;;;5018520;28;20041;-82
2024/02/18 01:57:42;;;;;;;8.75;5.35;;;10.40;99.90;;;;;;5016875;28;20461;-82
2024/02/18 02:00:12;;;;;;;10.50;4.35;;;10.40;99.90;;;;;;5017775;28;20427;-82
2024/02/18 02:02:43;;;;;;;10.43;5.47;;;10.40;99.90;;;;;;5018205;28;20393;-82
2024/02/18 02:05:12;;;;;;;8.68;4.85;;;10.50;99.90;;;;;;5017804;28;20037;-81
2024/02/18 02:07:38;;;;;;;13.57;4.78;;;10.60;99.90;;;;;;5017949;28;20037;-81
2024/02/18 02:10:04;;;;;;;11.20;5.75;;;10.50;99.90;;;;;;5017286;28;20211;-82
2024/02/18 02:12:34;;;;;;;14.65;7.88;;;10.40;99.90;;;;;;5019085;28;20475;-82
2024/02/18 02:15:00;;;;;;;21.40;8.77;;;10.50;99.90;;;;;;5018197;28;20048;-82
2024/02/18 02:17:25;;;;;;;12.38;6.68;;;10.60;99.90;;;;;;5017766;28;20037;-81
2024/02/18 02:19:51;;;;;;;14.10;6.68;;;10.50;99.90;;;;;;5017764;28;20039;-82
2024/02/18 02:22:16;;;;;;;17.67;6.35;;;10.60;99.90;;;;;;5017603;28;20073;-82
2024/02/18 02:24:42;;;;;;;15.90;5.82;;;10.40;99.90;;;;;;5018683;28;20411;-81
2024/02/18 02:27:11;;;;;;;11.07;5.85;;;10.30;99.90;;;;;;5017245;28;20444;-81
2024/02/18 02:29:38;;;;;;;11.27;5.72;;;10.40;99.90;;;;;;5016816;28;20029;-81
2024/02/18 02:32:04;;;;;;;12.23;6.47;;;10.50;99.90;;;;;;5018157;28;20021;-81
2024/02/18 02:34:29;;;;;;;11.23;5.20;;;10.50;99.90;;;;;;5017326;28;20037;-81
2024/02/18 02:36:55;;;;;;;12.80;5.25;;;10.50;99.90;;;;;;5016787;28;20037;-82
2024/02/18 02:39:21;;;;;;;13.60;5.72;;;10.50;99.90;;;;;;5017537;28;20049;-81
2024/02/18 02:41:47;;;;;;;14.50;5.90;;;10.40;99.90;;;;;;5017721;28;20480;-81
2024/02/18 02:44:12;;;;;;;12.40;6.22;;;10.40;99.90;;;;;;5016994;28;20053;-81
2024/02/18 02:46:39;;;;;;;12.75;6.32;;;10.30;99.90;;;;;;5017355;28;20434;-81
2024/02/18 02:49:04;;;;;;;10.90;6.47;;;10.30;99.90;;;;;;5016449;28;20034;-81
2024/02/18 02:51:31;;;;;;;15.00;5.43;;;10.30;99.90;;;;;;5017409;28;20090;-81
2024/02/18 02:53:57;;;;;;;13.60;5.60;;;10.30;99.90;;;;;;5017896;28;20124;-82
2024/02/18 02:56:22;;;;;;;14.90;6.07;;;10.40;99.90;;;;;;5017538;28;20399;-81
2024/02/18 02:58:48;;;;;;;11.60;5.90;;;10.50;99.90;;;;;;5017601;28;20025;-81
2024/02/18 03:01:14;;;;;;;11.90;6.13;;;10.50;99.90;;;;;;5017223;28;21184;-82
2024/02/18 03:03:39;;;;;;;11.02;5.55;;;10.40;99.90;;;;;;5016710;28;20049;-81
2024/02/18 03:06:06;;;;;;;10.02;5.55;;;10.40;99.90;;;;;;5015836;28;20025;-81
2024/02/18 03:08:32;;;;;;;13.98;6.72;;;10.40;99.90;;;;;;5016755;28;21236;-81
2024/02/18 03:10:57;;;;;;;14.88;6.53;;;10.50;99.90;;;;;;5016548;28;20032;-81
2024/02/18 03:13:23;;;;;;;11.80;6.00;;;10.40;99.90;;;;;;5016434;28;20037;-82
2024/02/18 03:15:49;;;;;;;17.00;8.38;;;10.20;99.90;;;;;;5016180;28;20504;-82
2024/02/18 03:18:15;;;;;;;13.35;6.03;;;10.20;99.90;;;;;;5017392;28;20033;-82
2024/02/18 03:20:41;;;;;;;9.77;5.43;;;10.20;99.90;;;;;;5016019;28;20045;-82
2024/02/18 03:23:07;;;;;;;15.02;6.53;;;10.10;99.90;;;;;;5015807;28;20115;-82
2024/02/18 03:25:33;;;;;;;14.15;6.70;;;10.20;99.90;;;;;;5016970;28;20504;-82
2024/02/18 03:28:00;;;;;;;13.00;6.63;;;10.20;99.90;;;;;;5016622;28;20074;-83
2024/02/18 03:30:27;;;;;;;13.02;6.65;;;10.30;99.90;;;;;;5015488;28;20033;-82
2024/02/18 03:32:53;;;;;;;10.48;5.35;;;10.40;99.90;;;;;;5017328;28;20029;-80
2024/02/18 03:35:27;;;;;;;11.07;5.03;;;10.30;99.90;;;;;;5017356;28;20494;-80
2024/02/18 03:37:56;;;;;;;10.93;5.28;;;10.30;99.90;;;;;;5015545;28;20033;-82
2024/02/18 03:40:22;;;;;;;11.80;5.80;;;10.20;99.90;;;;;;5016066;28;20033;-82
2024/02/18 03:42:49;;;;;;;13.57;6.03;;;10.20;99.90;;;;;;5016309;28;20042;-82
2024/02/18 03:45:15;;;;;;;10.15;4.78;;;10.10;99.90;;;;;;5016360;28;20674;-82
2024/02/18 03:47:41;;;;;;;12.70;6.28;;;10.10;99.90;;;;;;5015460;28;20041;-82
2024/02/18 03:50:10;;;;;;;8.88;4.57;;;10.00;99.90;;;;;;5016334;28;20568;-82
2024/02/18 03:52:36;;;;;;;10.93;4.82;;;9.90;99.90;;;;;;5016846;28;20400;-82
2024/02/18 03:55:02;;;;;;;9.50;5.10;;;9.80;99.90;;;;;;5015492;28;20029;-82
2024/02/18 03:57:27;;;;;;;10.45;5.43;;;9.70;99.90;;;;;;5016383;28;20034;-82
2024/02/18 03:59:53;;;;;;;12.65;5.55;;;9.60;99.90;;;;;;5016380;28;20021;-82
2024/02/18 04:02:18;;;;;;;21.92;8.07;;;9.70;99.90;;;;;;5013143;28;20057;-83
2024/02/18 04:04:44;;;;;;;10.27;4.82;;;9.70;99.90;;;;;;5010663;28;20359;-82
2024/02/18 04:07:10;;;;;;;8.10;4.55;;;9.70;99.90;;;;;;5012517;28;20061;-80
2024/02/18 04:09:36;;;;;;;10.52;4.72;;;9.60;99.90;;;;;;5011730;28;20200;-80
2024/02/18 04:12:03;;;;;;;12.50;6.28;;;9.40;99.90;;;;;;5012178;28;20036;-80
2024/02/18 04:14:28;;;;;;;18.23;7.75;;;9.40;99.90;;;;;;5012447;28;20094;-82
2024/02/18 04:16:54;;;;;;;14.27;6.53;;;9.30;99.90;;;;;;5011545;28;20037;-83
2024/02/18 04:19:20;;;;;;;10.68;6.97;;;9.40;99.90;;;;;;5010123;28;21328;-80
2024/02/18 04:21:46;;;;;;;14.93;6.68;;;9.20;99.90;;;;;;5011367;28;20120;-80
2024/02/18 04:24:11;;;;;;;12.45;5.95;;;9.30;99.90;;;;;;5012352;28;20049;-80
2024/02/18 04:26:37;;;;;;;13.43;5.75;;;9.30;99.90;;;;;;5012377;28;20474;-80
2024/02/18 04:29:03;;;;;;;10.70;6.20;;;9.40;99.90;;;;;;5014633;28;20038;-80
2024/02/18 04:31:28;;;;;;;13.00;5.88;;;9.40;99.90;;;;;;5012787;28;20037;-80
2024/02/18 04:33:54;;;;;;;9.13;5.50;;;9.30;99.90;;;;;;5012286;28;20614;-80
2024/02/18 04:36:20;;;;;;;11.52;6.07;;;9.30;99.90;;;;;;5012012;28;20029;-80
2024/02/18 04:38:49;;;;;;;11.93;5.50;;;9.40;99.90;;;;;;5010630;28;20061;-81
2024/02/18 04:41:15;;;;;;;9.25;4.65;;;9.40;99.90;;;;;;5014938;28;20037;-81
2024/02/18 04:43:40;;;;;;;9.10;4.78;;;9.40;99.90;;;;;;5015564;28;20068;-81
2024/02/18 04:46:06;;;;;;;11.02;5.32;;;9.40;99.90;;;;;;5015366;28;20037;-80
2024/02/18 04:48:32;;;;;;;10.88;4.93;;;9.50;99.90;;;;;;5014235;28;20509;-81
2024/02/18 04:50:57;;;;;;;12.38;4.90;;;9.40;99.90;;;;;;5016530;28;20526;-80
2024/02/18 04:53:23;;;;;;;11.80;5.30;;;9.40;99.90;;;;;;5015329;28;20045;-80
2024/02/18 04:55:49;;;;;;;9.77;4.95;;;9.30;99.90;;;;;;5015068;28;20048;-80
2024/02/18 04:58:14;;;;;;;14.05;6.60;;;9.20;99.90;;;;;;5014365;28;20033;-83
2024/02/18 05:00:40;;;;;;;12.45;5.85;;;9.10;99.90;;;;;;5014749;28;20545;-80
2024/02/18 05:03:05;;;;;;;10.48;6.10;;;9.00;99.90;;;;;;5012770;28;20492;-82
2024/02/18 05:05:31;;;;;;;10.30;5.38;;;8.90;99.90;;;;;;5013228;28;20463;-80
2024/02/18 05:07:57;;;;;;;9.88;5.07;;;8.90;99.90;;;;;;5014431;28;20033;-80
2024/02/18 05:10:22;;;;;;;11.07;5.28;;;8.90;99.90;;;;;;5013419;28;20060;-83
2024/02/18 05:12:48;;;;;;;10.30;5.20;;;8.80;99.90;;;;;;5013829;28;22060;-80
2024/02/18 05:15:14;;;;;;;11.02;4.85;;;9.00;99.90;;;;;;5013270;28;20048;-81
2024/02/18 05:17:39;;;;;;;9.60;5.13;;;9.00;99.90;;;;;;5013757;28;20522;-81
2024/02/18 05:20:09;;;;;;;12.57;5.97;;;9.20;99.90;;;;;;5013062;28;20659;-80
2024/02/18 05:22:39;;;;;;;11.52;4.95;;;9.10;99.90;;;;;;5013644;28;20048;-80
2024/02/18 05:25:04;;;;;;;9.93;4.78;;;9.10;99.90;;;;;;5013065;28;20124;-83
2024/02/18 05:27:30;;;;;;;10.15;4.50;;;9.10;99.90;;;;;;5013463;28;20064;-80
2024/02/18 05:29:56;;;;;;;7.53;3.92;;;9.00;99.90;;;;;;5014582;28;20037;-80
2024/02/18 05:32:22;;;;;;;12.23;4.80;;;9.00;99.90;;;;;;5014057;28;20025;-79
2024/02/18 05:34:48;;;;;;;9.25;4.57;;;8.90;99.90;;;;;;5012676;28;20037;-80
2024/02/18 05:37:14;;;;;;;7.75;4.18;;;8.80;99.90;;;;;;5013175;28;20036;-80
2024/02/18 05:39:39;;;;;;;11.23;4.47;;;8.70;99.90;;;;;;5012362;28;20459;-80
2024/02/18 05:42:06;;;;;;;11.27;5.50;;;8.60;99.90;;;;;;5013127;28;20144;-80
2024/02/18 05:44:32;;;;;;;8.43;4.93;;;8.80;99.90;;;;;;5012895;28;20069;-82
2024/02/18 05:46:58;;;;;;;15.55;5.78;;;8.70;99.90;;;;;;5013095;28;20937;-81
2024/02/18 05:49:24;;;;;;;13.60;5.85;;;8.60;99.90;;;;;;5013609;28;20040;-85
2024/02/18 05:51:53;;;;;;;10.45;5.35;;;8.60;99.90;;;;;;5012385;28;20835;-82
2024/02/18 05:54:23;;;;;;;8.98;4.43;;;8.40;99.90;;;;;;5013085;28;20184;-82
2024/02/18 05:56:49;;;;;;;9.90;4.43;;;8.40;99.90;;;;;;5012984;28;20044;-82
2024/02/18 05:59:14;;;;;;;10.65;4.57;;;8.40;99.90;;;;;;5009682;28;20659;-82
2024/02/18 06:01:40;;;;;;;10.98;5.07;;;8.20;99.90;;;;;;5012405;28;20047;-83
2024/02/18 06:04:06;;;;;;;9.23;4.93;;;8.10;99.90;;;;;;5013811;28;20049;-80
2024/02/18 06:06:32;;;;;;;14.15;5.18;;;8.10;99.90;;;;;;5013173;28;20102;-80
2024/02/18 06:08:57;;;;;;;9.13;4.45;;;8.20;99.90;;;;;;5010045;28;20523;-82
2024/02/18 06:11:23;;;;;;;13.93;4.47;;;8.30;99.90;;;;;;5010498;28;20033;-80
2024/02/18 06:13:49;;;;;;;11.85;5.38;;;8.40;99.90;;;;;;5012506;28;20032;-80
2024/02/18 06:16:15;;;;;;;11.25;4.75;;;8.50;99.90;;;;;;5012847;28;20075;-80
2024/02/18 06:18:41;;;;;;;9.73;4.10;;;8.50;99.90;;;;;;5013424;28;20038;-80
2024/02/18 06:21:06;;;;;;;8.73;3.72;;;8.70;99.90;;;;;;5014357;28;21151;-80
2024/02/18 06:23:32;;;;;;;9.50;3.95;;;8.60;99.90;;;;;;5013657;28;20048;-80
2024/02/18 06:25:58;;;;;;;12.35;5.15;;;8.50;99.90;;;;;;5012261;28;20033;-81
2024/02/18 06:28:31;;;;;;;8.38;4.43;;;8.50;99.90;;;;;;5014733;28;20079;-81
2024/02/18 06:30:59;;;;;;;8.15;4.40;;;8.60;99.90;;;;;;5013597;28;20029;-80
2024/02/18 06:33:25;;;;;;;8.15;4.05;;;8.70;99.90;;;;;;5010901;28;20044;-80
2024/02/18 06:35:50;;;;;;;7.60;4.05;;;8.60;99.90;;;;;;5012444;28;20475;-80
2024/02/18 06:38:16;;;;;;;10.05;5.60;;;8.60;99.90;;;;;;5011839;28;21047;-81
2024/02/18 06:40:42;;;;;;;8.18;4.65;;;8.50;99.90;;;;;;5010364;28;20036;-80
2024/02/18 06:43:07;;;;;;;7.90;4.25;;;8.50;99.90;;;;;;5011239;28;20056;-81
2024/02/18 06:45:33;;;;;;;8.70;4.25;;;8.30;99.90;;;;;;5011968;28;20034;-80
2024/02/18 06:47:58;;;;;;;14.45;4.78;;;8.10;99.90;;;;;;5010941;28;20133;-81
2024/02/18 06:50:24;;;;;;;8.20;5.00;;;8.20;99.90;;;;;;5011322;28;20116;-80
2024/02/18 06:52:50;;;;;;;9.75;5.40;;;8.40;99.90;;;;;;4997192;28;20037;-82
2024/02/18 06:55:16;;;;;;;11.13;5.25;;;8.50;99.90;;;;;;5011055;28;20044;-80
2024/02/18 06:57:44;;;;;;;10.80;5.50;;;8.50;99.90;;;;;;5011622;28;20037;-80
2024/02/18 07:00:11;;;;;;;9.65;4.10;;;8.50;99.90;;;;;;5011760;28;20041;-80
2024/02/18 07:02:37;;;;;;;11.05;4.60;;;8.40;99.90;;;;;;5011735;28;20045;-80
2024/02/18 07:05:06;;;;;;;10.20;5.00;;;8.50;99.90;;;;;;5009892;28;20403;-80
2024/02/18 07:07:32;;;;;;;12.55;4.78;;;8.50;99.90;;;;;;5011632;28;20487;-80
2024/02/18 07:09:58;;;;;;;8.27;4.25;;;8.50;99.90;;;;;;5011906;28;20048;-80
2024/02/18 07:12:23;;;;;;;6.97;3.58;;;8.60;99.90;;;;;;5011027;28;20030;-80
2024/02/18 07:14:49;;;;;;;6.72;3.85;;;8.60;99.90;;;;;;5011673;28;20033;-80
2024/02/18 07:17:19;;;;;;;7.07;3.70;;;8.60;99.90;;;;;;5012154;28;20042;-80
2024/02/18 07:19:46;;;;;;;9.73;4.05;;;8.60;99.90;;;;;;5012052;28;20562;-80
2024/02/18 07:22:14;;;;;;;12.02;3.67;;;8.60;99.90;;;;;;5009984;28;20048;-81
2024/02/18 07:24:40;;;;;;;8.63;3.95;;;8.40;99.90;;;;;;5010777;28;20030;-80
2024/02/18 07:27:05;;;;;;;7.57;3.72;;;8.30;99.90;;;;;;5011308;28;20072;-80
2024/02/18 07:29:31;;;;;;;8.30;4.43;;;8.20;99.90;;;;;;5010367;28;20037;-80
2024/02/18 07:31:57;;;;;;;7.18;3.75;;;8.10;99.90;;;;;;5012591;28;20041;-84
2024/02/18 07:34:22;;;;;;;7.22;3.70;;;8.10;99.90;;;;;;5010979;28;20060;-83
2024/02/18 07:36:49;;;;;;;6.07;3.55;;;8.10;99.90;;;;;;5008557;28;20487;-82
2024/02/18 07:39:15;;;;;;;6.55;3.90;;;8.20;99.90;;;;;;5011837;28;20025;-80
2024/02/18 07:41:40;;;;;;;8.18;4.10;;;8.10;99.90;;;;;;5011514;28;20041;-83
2024/02/18 07:44:07;;;;;;;8.05;4.00;;;8.20;99.90;;;;;;5010442;28;20041;-80
2024/02/18 07:46:33;;;;;;;8.40;4.07;;;8.30;99.90;;;;;;5010986;28;20061;-79
2024/02/18 07:48:59;;;;;;;8.15;3.72;;;8.30;99.90;;;;;;5011133;28;20113;-81
2024/02/18 07:51:28;;;;;;;8.23;3.97;;;8.40;99.90;;;;;;5010095;28;20300;-80
2024/02/18 07:53:55;;;;;;;7.38;3.97;;;8.50;99.90;;;;;;5010222;28;20643;-81
2024/02/18 07:56:21;;;;;;;8.52;3.83;;;8.50;99.90;;;;;;5011313;28;20037;-83
2024/02/18 07:58:48;;;;;;;7.40;3.65;;;8.40;99.90;;;;;;5010555;28;20036;-82
2024/02/18 08:01:14;;;;;;;8.88;4.13;;;8.50;99.90;;;;;;5012031;28;20033;-82
2024/02/18 08:03:40;;;;;;;9.43;4.40;;;8.50;99.90;;;;;;5011523;28;20217;-82
2024/02/18 08:06:09;;;;;;;10.05;4.28;;;8.60;99.90;;;;;;5010826;28;20049;-82
2024/02/18 08:08:35;;;;;;;7.85;4.18;;;8.50;99.90;;;;;;5010240;28;20075;-82
2024/02/18 08:11:01;;;;;;;6.65;3.53;;;8.40;99.90;;;;;;5009996;28;20034;-83
2024/02/18 08:13:26;;;;;;;9.05;3.92;;;8.40;99.90;;;;;;5010249;28;20052;-82
2024/02/18 08:15:52;;;;;;;6.07;3.47;;;8.40;99.90;;;;;;5009435;28;20869;-82
2024/02/18 08:18:18;;;;;;;7.13;3.92;;;8.50;99.90;;;;;;5010211;28;20463;-82
2024/02/18 08:20:44;;;;;;;8.48;4.25;;;8.50;99.90;;;;;;5009841;28;20863;-82
2024/02/18 08:23:11;;;;;;;7.47;3.78;;;8.40;99.90;;;;;;5009846;28;20049;-83
2024/02/18 08:25:36;;;;;;;7.70;3.70;;;8.50;99.90;;;;;;5011966;28;20071;-82
2024/02/18 08:28:03;;;;;;;6.45;3.53;;;8.50;99.90;;;;;;5011707;28;20049;-82
2024/02/18 08:30:28;;;;;;;6.68;3.13;;;8.60;99.90;;;;;;5013336;28;20052;-82
2024/02/18 08:32:54;;;;;;;6.25;2.53;;;8.70;99.90;;;;;;5011272;28;20033;-82
2024/02/18 08:35:21;;;;;;;4.68;2.70;;;8.70;99.90;;;;;;5012016;28;20606;-82
2024/02/18 08:37:49;;;;;;;5.78;3.05;;;8.70;99.90;;;;;;5013301;28;20091;-82
2024/02/18 08:40:16;;;;;;;9.02;3.90;;;8.70;99.90;;;;;;5013009;28;20076;-82
2024/02/18 08:42:41;;;;;;;6.30;3.30;;;8.70;99.90;;;;;;5013206;28;21520;-83
2024/02/18 08:45:10;;;;;;;6.55;3.35;;;8.70;99.90;;;;;;5013462;28;21824;-80
2024/02/18 08:47:36;;;;;;;6.70;3.63;;;8.80;99.90;;;;;;5012811;28;20038;-82
2024/02/18 08:50:02;;;;;;;9.00;3.88;;;8.80;99.90;;;;;;5011597;28;20048;-85
2024/02/18 08:52:28;;;;;;;10.13;3.72;;;8.90;99.90;;;;;;5012182;28;20081;-82
2024/02/18 08:54:53;;;;;;;5.43;2.90;;;8.90;99.90;;;;;;5011555;28;20483;-82
2024/02/18 08:57:19;;;;;;;6.28;2.88;;;8.90;99.90;;;;;;5012953;28;20033;-82
2024/02/18 08:59:45;;;;;;;7.25;3.47;;;9.10;99.90;;;;;;5012442;28;20041;-83
2024/02/18 09:02:10;;;;;;;7.05;3.20;;;9.20;99.90;;;;;;5010922;28;20032;-80
2024/02/18 09:04:36;;;;;;;7.97;2.80;;;9.30;99.90;;;;;;5010470;28;20590;-80
2024/02/18 09:07:03;;;;;;;6.00;2.85;;;9.40;99.90;;;;;;5009912;28;20558;-81
2024/02/18 09:09:29;;;;;;;5.50;3.00;;;9.50;99.90;;;;;;5009987;28;20554;-80
2024/02/18 09:11:54;;;;;;;14.68;5.75;;;9.60;99.90;;;;;;5009866;28;20116;-82
2024/02/18 09:14:20;;;;;;;14.65;7.05;;;9.60;99.90;;;;;;5009716;28;20100;-80
2024/02/18 09:16:46;;;;;;;9.43;4.80;;;9.60;99.90;;;;;;5010856;28;20032;-81
2024/02/18 09:19:12;;;;;;;10.05;5.05;;;9.60;99.90;;;;;;5010876;28;20123;-81
2024/02/18 09:21:38;;;;;;;10.23;4.82;;;9.70;99.90;;;;;;5009611;28;20156;-80
2024/02/18 09:24:04;;;;;;;7.88;3.97;;;9.60;99.90;;;;;;5009895;28;20041;-79
2024/02/18 09:26:29;;;;;;;7.45;3.97;;;9.60;99.90;;;;;;5010994;28;20045;-80
2024/02/18 09:28:55;;;;;;;7.38;4.10;;;9.70;99.90;;;;;;5015854;28;20041;-80
2024/02/18 09:31:21;;;;;;;7.28;3.42;;;9.70;99.90;;;;;;5019479;28;20036;-80
2024/02/18 09:33:47;;;;;;;6.07;3.55;;;9.90;99.90;;;;;;5019230;28;20550;-80
2024/02/18 09:36:12;;;;;;;7.88;3.90;;;9.90;99.90;;;;;;5020126;28;20076;-80
2024/02/18 09:38:38;;;;;;;5.55;3.20;;;10.10;99.90;;;;;;5019168;28;20033;-80
2024/02/18 09:41:04;;;;;;;6.47;3.58;;;10.10;99.90;;;;;;5018280;28;20064;-80
2024/02/18 09:43:42;;;;;;;6.60;3.15;;;10.10;99.90;;;;;;5017757;28;20076;-80
2024/02/18 09:46:08;;;;;;;6.88;4.07;;;10.10;99.90;;;;;;5017545;28;20026;-82
2024/02/18 09:48:36;;;;;;;7.88;3.88;;;10.20;99.90;;;;;;5019584;28;20037;-80
2024/02/18 09:51:05;;;;;;;5.65;3.53;;;10.30;99.90;;;;;;5019395;28;20061;-80
2024/02/18 09:53:33;;;;;;;7.13;2.70;;;10.40;99.90;;;;;;5019366;28;20036;-80
2024/02/18 09:55:59;;;;;;;9.90;3.88;;;10.40;99.90;;;;;;5018020;28;20071;-80
2024/02/18 09:58:25;;;;;;;6.25;3.42;;;10.50;99.90;;;;;;5017932;28;20130;-83
2024/02/18 10:00:52;;;;;;;6.45;3.40;;;10.60;99.90;;;;;;5018261;28;20551;-82
2024/02/18 10:03:18;;;;;;;6.50;3.20;;;10.70;99.90;;;;;;5017418;28;20038;-83
2024/02/18 10:05:43;;;;;;;6.28;3.30;;;10.70;99.90;;;;;;5018500;28;20088;-83
2024/02/18 10:08:09;;;;;;;8.27;4.60;;;10.70;99.90;;;;;;5017585;28;20060;-80
2024/02/18 10:10:35;;;;;;;5.78;3.20;;;10.80;99.90;;;;;;5017513;28;20064;-80
2024/02/18 10:13:02;;;;;;;7.13;3.28;;;10.80;99.90;;;;;;5017215;28;20057;-83
2024/02/18 10:15:28;;;;;;;5.43;3.08;;;10.80;99.90;;;;;;5017993;28;20029;-80
2024/02/18 10:17:54;;;;;;;6.38;3.42;;;10.90;99.90;;;;;;5019033;28;20033;-83
2024/02/18 10:20:20;;;;;;;11.30;3.30;;;11.00;99.90;;;;;;5019776;28;20044;-83
2024/02/18 10:22:45;;;;;;;7.10;3.45;;;11.00;99.90;;;;;;5018565;28;20041;-82
2024/02/18 10:25:11;;;;;;;8.30;2.92;;;11.10;99.90;;;;;;5017167;28;20391;-83
2024/02/18 10:27:37;;;;;;;5.03;2.65;;;11.20;99.90;;;;;;5016819;28;20032;-82
2024/02/18 10:30:03;;;;;;;8.30;3.03;;;11.20;99.90;;;;;;5011537;28;20571;-83
2024/02/18 10:32:30;;;;;;;9.05;3.40;;;11.30;99.90;;;;;;5014576;28;20056;-83
2024/02/18 10:34:56;;;;;;;5.43;2.95;;;11.40;99.90;;;;;;5011611;28;20624;-80
2024/02/18 10:37:29;;;;;;;7.13;2.88;;;11.50;99.90;;;;;;5012777;28;20033;-80
2024/02/18 10:40:01;;;;;;;6.55;2.88;;;11.50;99.90;;;;;;5014968;28;20045;-84
2024/02/18 10:42:30;;;;;;;8.10;3.75;;;11.60;99.90;;;;;;5013828;28;20038;-80
2024/02/18 10:44:59;;;;;;;10.07;2.95;;;11.70;99.90;;;;;;5014237;28;20104;-84
2024/02/18 10:47:27;;;;;;;6.43;2.97;;;11.70;99.90;;;;;;5015020;28;20532;-82
2024/02/18 10:50:05;;;;;;;7.68;3.25;;;11.80;99.90;;;;;;5013616;28;20127;-84
2024/02/18 10:52:34;;;;;;;4.65;2.60;;;11.90;99.90;;;;;;5013802;28;20045;-83
2024/02/18 10:55:15;;;;;;;6.70;2.58;;;12.00;99.90;;;;;;5013702;28;20061;-84
2024/02/18 10:57:59;;;;;;;7.85;2.53;;;12.00;99.90;;;;;;5014041;28;20033;-82
2024/02/18 11:00:27;;;;;;;6.22;2.78;;;12.10;99.90;;;;;;5013495;28;20068;-82
2024/02/18 11:03:03;;;;;;;5.97;2.42;;;12.30;99.90;;;;;;5014341;28;20124;-82
2024/02/18 11:05:35;;;;;;;5.05;2.60;;;12.50;99.90;;;;;;5014262;28;20057;-83
2024/02/18 11:08:01;;;;;;;6.65;2.10;;;12.50;99.90;;;;;;5014400;28;20276;-83
2024/02/18 11:10:29;;;;;;;4.55;2.58;;;12.70;99.90;;;;;;5013020;28;20068;-84
2024/02/18 11:12:56;;;;;;;4.00;2.20;;;12.60;99.90;;;;;;5012999;28;20044;-80
2024/02/18 11:15:21;;;;;;;4.03;1.98;;;12.60;99.90;;;;;;5014392;28;20569;-83
2024/02/18 11:17:48;;;;;;;5.05;2.33;;;12.70;99.90;;;;;;5013907;28;20123;-82
2024/02/18 11:20:14;;;;;;;4.18;2.22;;;12.80;99.90;;;;;;5012255;28;20045;-83
2024/02/18 11:22:40;;;;;;;5.63;2.70;;;12.90;99.90;;;;;;5013397;28;20115;-82
2024/02/18 11:25:06;;;;;;;4.43;2.47;;;12.90;99.90;;;;;;5011206;28;20494;-84
2024/02/18 11:27:34;;;;;;;6.82;2.63;;;13.00;99.90;;;;;;5013222;28;20030;-82
2024/02/18 11:30:00;;;;;;;4.78;2.15;;;13.10;99.90;;;;;;5011512;28;20529;-82
2024/02/18 11:32:27;;;;;;;5.20;2.58;;;13.10;99.90;;;;;;5011636;28;20041;-83
2024/02/18 11:34:53;;;;;;;5.05;2.40;;;13.20;99.90;;;;;;5011764;28;20476;-83
2024/02/18 11:37:34;;;;;;;4.35;2.40;;;13.30;99.90;;;;;;5011576;28;21463;-82
2024/02/18 11:40:11;;;;;;;5.35;2.78;;;13.40;99.90;;;;;;5012467;28;20051;-83
2024/02/18 11:42:38;;;;;;;5.75;2.55;;;13.60;99.90;;;;;;5011341;28;20499;-83
2024/02/18 11:45:10;;;;;;;5.63;2.60;;;14.00;99.90;;;;;;5012244;28;21316;-80
2024/02/18 11:47:46;;;;;;;5.50;2.88;;;13.90;99.80;;;;;;5011583;28;20048;-80
2024/02/18 11:50:12;;;;;;;5.18;2.42;;;14.10;99.30;;;;;;5013162;28;20112;-80
2024/02/18 11:52:43;;;;;;;8.02;3.17;;;14.20;99.20;;;;;;5011151;28;20064;-83
2024/02/18 11:55:16;;;;;;;5.40;2.40;;;14.10;98.90;;;;;;5014639;28;20103;-83
2024/02/18 11:57:42;;;;;;;5.40;2.88;;;14.40;99.20;;;;;;5013708;28;20125;-81
2024/02/18 12:00:09;;;;;;;5.80;2.53;;;14.60;99.50;;;;;;5011879;28;20026;-81
2024/02/18 12:02:50;;;;;;;6.20;2.95;;;14.80;99.20;;;;;;5012867;28;20099;-80
2024/02/18 12:05:17;;;;;;;6.72;3.83;;;14.90;98.50;;;;;;5012570;28;21125;-80
2024/02/18 12:07:45;;;;;;;8.32;3.13;;;14.80;98.30;;;;;;5012334;28;21803;-83
2024/02/18 12:10:11;;;;;;;6.43;2.67;;;14.80;98.30;;;;;;5011332;28;20051;-81
2024/02/18 12:12:37;;;;;;;11.02;2.78;;;15.20;98.80;;;;;;5010148;28;20043;-81
2024/02/18 12:15:03;;;;;;;5.68;3.10;;;15.20;98.80;;;;;;5010872;28;20037;-81
2024/02/18 12:17:29;;;;;;;7.80;3.35;;;15.20;98.50;;;;;;5011883;28;20876;-81
2024/02/18 12:19:56;;;;;;;7.47;3.03;;;15.30;98.30;;;;;;5010595;28;20447;-81
2024/02/18 12:22:23;;;;;;;5.53;2.38;;;15.20;98.50;;;;;;5010641;28;20045;-80
2024/02/18 12:24:50;;;;;;;5.15;2.22;;;15.00;98.30;;;;;;5010690;28;20029;-80
2024/02/18 12:27:19;;;;;;;4.85;2.60;;;15.10;97.80;;;;;;5010856;28;20029;-81
2024/02/18 12:29:45;;;;;;;6.80;2.85;;;15.20;97.30;;;;;;5011195;28;20034;-80
2024/02/18 12:32:12;;;;;;;7.53;3.63;;;15.30;98.00;;;;;;5012332;28;20066;-81
2024/02/18 12:34:39;;;;;;;6.55;2.97;;;15.40;97.20;;;;;;5012309;28;20044;-81
2024/02/18 12:37:04;;;;;;;5.45;2.58;;;15.40;96.90;;;;;;5011387;28;20395;-81
2024/02/18 12:39:31;;;;;;;7.85;2.95;;;15.40;96.30;;;;;;5013617;28;20039;-81
2024/02/18 12:41:58;;;;;;;8.63;3.40;;;15.40;96.40;;;;;;5012355;28;20030;-80